sensor_id;sensor_type;location;lat;lon;timestamp;temperature;humidity
1594;DHT22;790;47.000;16.084;2022-09-09T00:00:41;16.60;99.90
1594;DHT22;790;47.000;16.084;2022-09-09T00:07:11;17.00;99.90
1594;DHT22;790;47.000;16.084;2022-09-09T00:13:39;17.00;99.90
1594;DHT22;790;47.000;16.084;2022-09-09T00:25:10;16.50;99.90
1594;DHT22;790;47.000;16.084;2022-09-09T00:31:23;16.50;99.90
1594;DHT22;790;47.000;16.084;2022-09-09T00:37:32;16.60;99.90
1594;DHT22;790;47.000;16.084;2022-09-09T00:43:49;16.40;99.90
1594;DHT22;790;47.000;16.084;2022-09-09T00:50:03;16.20;99.90
1594;DHT22;790;47.000;16.084;2022-09-09T00:56:13;15.90;99.90
1594;DHT22;790;47.000;16.084;2022-09-09T01:02:40;16.00;99.90
1594;DHT22;790;47.000;16.084;2022-09-09T01:09:13;16.20;99.90
1594;DHT22;790;47.000;16.084;2022-09-09T01:15:26;16.40;99.90
1594;DHT22;790;47.000;16.084;2022-09-09T01:26:26;15.80;99.90
1594;DHT22;790;47.000;16.084;2022-09-09T01:32:50;15.60;99.90
1594;DHT22;790;47.000;16.084;2022-09-09T01:39:12;15.50;99.90
1594;DHT22;790;47.000;16.084;2022-09-09T01:45:35;15.50;99.90
1594;DHT22;790;47.000;16.084;2022-09-09T01:51:58;15.20;99.90
1594;DHT22;790;47.000;16.084;2022-09-09T01:58:26;15.40;99.90
1594;DHT22;790;47.000;16.084;2022-09-09T02:04:56;15.50;99.90
1594;DHT22;790;47.000;16.084;2022-09-09T02:11:24;15.60;99.90
1594;DHT22;790;47.000;16.084;2022-09-09T02:17:46;15.50;99.90
1594;DHT22;790;47.000;16.084;2022-09-09T02:29:09;15.70;99.90
1594;DHT22;790;47.000;16.084;2022-09-09T02:35:23;15.80;99.90
1594;DHT22;790;47.000;16.084;2022-09-09T02:41:34;15.50;99.90
1594;DHT22;790;47.000;16.084;2022-09-09T02:47:50;15.30;99.90
1594;DHT22;790;47.000;16.084;2022-09-09T02:54:04;15.30;99.90
1594;DHT22;790;47.000;16.084;2022-09-09T03:00:17;15.20;99.90
1594;DHT22;790;47.000;16.084;2022-09-09T03:06:32;15.30;99.90
1594;DHT22;790;47.000;16.084;2022-09-09T03:12:40;15.50;99.90
1594;DHT22;790;47.000;16.084;2022-09-09T03:18:48;15.60;99.90
1594;DHT22;790;47.000;16.084;2022-09-09T03:29:22;15.50;99.90
1594;DHT22;790;47.000;16.084;2022-09-09T03:35:45;15.70;99.90
1594;DHT22;790;47.000;16.084;2022-09-09T03:42:08;15.80;99.90
1594;DHT22;790;47.000;16.084;2022-09-09T03:48:32;15.80;99.90
1594;DHT22;790;47.000;16.084;2022-09-09T03:54:54;15.70;99.90
1594;DHT22;790;47.000;16.084;2022-09-09T04:01:16;15.70;99.90
1594;DHT22;790;47.000;16.084;2022-09-09T04:07:39;15.70;99.90
1594;DHT22;790;47.000;16.084;2022-09-09T04:14:00;15.80;99.90
1594;DHT22;790;47.000;16.084;2022-09-09T04:20:22;15.80;99.90
1594;DHT22;790;47.000;16.084;2022-09-09T04:31:11;15.80;99.90
1594;DHT22;790;47.000;16.084;2022-09-09T04:37:21;15.70;99.90
1594;DHT22;790;47.000;16.084;2022-09-09T04:43:29;15.90;99.90
1594;DHT22;790;47.000;16.084;2022-09-09T04:49:38;16.00;99.90
1594;DHT22;790;47.000;16.084;2022-09-09T04:55:47;16.10;99.90
1594;DHT22;790;47.000;16.084;2022-09-09T05:01:55;16.10;99.90
1594;DHT22;790;47.000;16.084;2022-09-09T05:08:06;16.30;99.90
1594;DHT22;790;47.000;16.084;2022-09-09T05:14:14;16.40;99.90
1594;DHT22;790;47.000;16.084;2022-09-09T05:20:22;16.30;99.90
1594;DHT22;790;47.000;16.084;2022-09-09T05:30:46;16.30;99.90
1594;DHT22;790;47.000;16.084;2022-09-09T05:37:08;16.40;99.90
1594;DHT22;790;47.000;16.084;2022-09-09T05:43:29;16.50;99.90
1594;DHT22;790;47.000;16.084;2022-09-09T05:49:54;16.60;99.90
1594;DHT22;790;47.000;16.084;2022-09-09T05:56:17;16.70;99.90
1594;DHT22;790;47.000;16.084;2022-09-09T06:02:39;16.80;99.90
1594;DHT22;790;47.000;16.084;2022-09-09T06:09:03;16.90;99.90
1594;DHT22;790;47.000;16.084;2022-09-09T06:15:27;16.80;99.90
1594;DHT22;790;47.000;16.084;2022-09-09T06:21:49;16.90;99.90
1594;DHT22;790;47.000;16.084;2022-09-09T06:32:37;17.00;99.90
1594;DHT22;790;47.000;16.084;2022-09-09T06:38:46;17.20;99.90
1594;DHT22;790;47.000;16.084;2022-09-09T06:44:54;17.30;99.90
1594;DHT22;790;47.000;16.084;2022-09-09T06:51:06;17.50;99.90
1594;DHT22;790;47.000;16.084;2022-09-09T06:57:14;17.80;99.90
1594;DHT22;790;47.000;16.084;2022-09-09T07:03:22;18.00;99.90
1594;DHT22;790;47.000;16.084;2022-09-09T07:09:31;18.20;99.90
1594;DHT22;790;47.000;16.084;2022-09-09T07:15:39;18.30;99.90
1594;DHT22;790;47.000;16.084;2022-09-09T07:21:47;18.40;99.90
1594;DHT22;790;47.000;16.084;2022-09-09T07:32:11;18.80;99.90
1594;DHT22;790;47.000;16.084;2022-09-09T07:38:37;19.10;99.90
1594;DHT22;790;47.000;16.084;2022-09-09T07:44:59;19.30;99.90
1594;DHT22;790;47.000;16.084;2022-09-09T07:51:24;19.50;99.90
1594;DHT22;790;47.000;16.084;2022-09-09T07:57:46;19.60;99.90
1594;DHT22;790;47.000;16.084;2022-09-09T08:04:10;19.80;99.90
1594;DHT22;790;47.000;16.084;2022-09-09T08:10:36;20.00;99.90
1594;DHT22;790;47.000;16.084;2022-09-09T08:16:58;20.20;99.90
1594;DHT22;790;47.000;16.084;2022-09-09T08:23:20;20.50;99.90
1594;DHT22;790;47.000;16.084;2022-09-09T08:34:08;20.90;99.90
1594;DHT22;790;47.000;16.084;2022-09-09T08:40:22;21.20;99.90
1594;DHT22;790;47.000;16.084;2022-09-09T08:46:40;21.30;99.90
1594;DHT22;790;47.000;16.084;2022-09-09T08:52:56;21.40;99.90
1594;DHT22;790;47.000;16.084;2022-09-09T08:59:07;21.60;99.90
1594;DHT22;790;47.000;16.084;2022-09-09T09:05:23;21.80;99.90
1594;DHT22;790;47.000;16.084;2022-09-09T09:11:39;21.90;99.90
1594;DHT22;790;47.000;16.084;2022-09-09T09:17:49;22.00;99.90
1594;DHT22;790;47.000;16.084;2022-09-09T09:23:58;22.20;99.90
1594;DHT22;790;47.000;16.084;2022-09-09T09:34:31;22.60;99.90
1594;DHT22;790;47.000;16.084;2022-09-09T09:40:54;22.80;99.90
1594;DHT22;790;47.000;16.084;2022-09-09T09:47:20;22.80;99.90
1594;DHT22;790;47.000;16.084;2022-09-09T09:53:43;22.80;99.90
1594;DHT22;790;47.000;16.084;2022-09-09T10:00:13;23.00;99.90
1594;DHT22;790;47.000;16.084;2022-09-09T10:06:36;23.10;99.90
1594;DHT22;790;47.000;16.084;2022-09-09T10:13:36;23.20;99.90
1594;DHT22;790;47.000;16.084;2022-09-09T10:20:16;23.30;99.90
1594;DHT22;790;47.000;16.084;2022-09-09T10:26:46;23.60;99.90
1594;DHT22;790;47.000;16.084;2022-09-09T10:38:18;23.80;99.90
1594;DHT22;790;47.000;16.084;2022-09-09T10:44:50;24.10;99.90
1594;DHT22;790;47.000;16.084;2022-09-09T10:51:11;24.40;99.90
1594;DHT22;790;47.000;16.084;2022-09-09T10:57:27;24.30;99.90
1594;DHT22;790;47.000;16.084;2022-09-09T11:03:39;24.00;99.90
1594;DHT22;790;47.000;16.084;2022-09-09T11:09:52;23.80;99.90
1594;DHT22;790;47.000;16.084;2022-09-09T11:16:11;23.70;99.90
1594;DHT22;790;47.000;16.084;2022-09-09T11:22:26;23.90;99.90
1594;DHT22;790;47.000;16.084;2022-09-09T11:28:46;24.10;99.90
1594;DHT22;790;47.000;16.084;2022-09-09T11:40:20;24.40;99.90
1594;DHT22;790;47.000;16.084;2022-09-09T11:46:46;24.30;99.90
1594;DHT22;790;47.000;16.084;2022-09-09T11:53:30;24.30;99.90
1594;DHT22;790;47.000;16.084;2022-09-09T11:59:52;24.20;99.90
1594;DHT22;790;47.000;16.084;2022-09-09T12:06:18;24.20;99.90
1594;DHT22;790;47.000;16.084;2022-09-09T12:12:41;24.30;99.90
1594;DHT22;790;47.000;16.084;2022-09-09T12:19:14;24.30;99.90
1594;DHT22;790;47.000;16.084;2022-09-09T12:32:22;24.30;99.90
1594;DHT22;790;47.000;16.084;2022-09-09T12:38:56;24.30;99.90
1594;DHT22;790;47.000;16.084;2022-09-09T12:45:21;24.20;99.90
1594;DHT22;790;47.000;16.084;2022-09-09T12:51:44;24.30;99.90
1594;DHT22;790;47.000;16.084;2022-09-09T12:58:11;24.40;99.90
1594;DHT22;790;47.000;16.084;2022-09-09T13:04:34;24.10;99.90
1594;DHT22;790;47.000;16.084;2022-09-09T13:10:58;24.10;99.90
1594;DHT22;790;47.000;16.084;2022-09-09T13:17:25;24.20;99.90
1594;DHT22;790;47.000;16.084;2022-09-09T13:23:50;24.20;99.90
1594;DHT22;790;47.000;16.084;2022-09-09T13:30:21;24.30;99.90
1594;DHT22;790;47.000;16.084;2022-09-09T13:41:10;24.40;99.90
1594;DHT22;790;47.000;16.084;2022-09-09T13:47:31;24.40;99.90
1594;DHT22;790;47.000;16.084;2022-09-09T13:53:40;24.20;99.90
1594;DHT22;790;47.000;16.084;2022-09-09T13:59:49;24.10;99.90
1594;DHT22;790;47.000;16.084;2022-09-09T14:05:58;24.10;99.90
1594;DHT22;790;47.000;16.084;2022-09-09T14:12:08;24.10;99.90
1594;DHT22;790;47.000;16.084;2022-09-09T14:18:17;23.90;99.90
1594;DHT22;790;47.000;16.084;2022-09-09T14:24:25;23.90;99.90
1594;DHT22;790;47.000;16.084;2022-09-09T14:30:34;23.70;99.90
1594;DHT22;790;47.000;16.084;2022-09-09T14:41:09;23.30;99.90
1594;DHT22;790;47.000;16.084;2022-09-09T14:47:31;23.20;99.90
1594;DHT22;790;47.000;16.084;2022-09-09T14:53:53;23.00;99.90
1594;DHT22;790;47.000;16.084;2022-09-09T15:00:16;22.90;99.90
1594;DHT22;790;47.000;16.084;2022-09-09T15:06:38;22.70;99.90
1594;DHT22;790;47.000;16.084;2022-09-09T15:13:01;22.40;99.90
1594;DHT22;790;47.000;16.084;2022-09-09T15:19:24;22.20;99.90
1594;DHT22;790;47.000;16.084;2022-09-09T15:25:52;21.90;99.90
1594;DHT22;790;47.000;16.084;2022-09-09T15:32:14;21.80;99.90
1594;DHT22;790;47.000;16.084;2022-09-09T15:43:00;21.60;99.90
1594;DHT22;790;47.000;16.084;2022-09-09T15:49:13;21.50;99.90
1594;DHT22;790;47.000;16.084;2022-09-09T15:55:22;21.30;99.90
1594;DHT22;790;47.000;16.084;2022-09-09T16:01:32;21.30;99.90
1594;DHT22;790;47.000;16.084;2022-09-09T16:07:41;21.40;99.90
1594;DHT22;790;47.000;16.084;2022-09-09T16:13:52;21.40;99.90
1594;DHT22;790;47.000;16.084;2022-09-09T16:20:02;21.20;99.90
1594;DHT22;790;47.000;16.084;2022-09-09T16:26:13;21.10;99.90
1594;DHT22;790;47.000;16.084;2022-09-09T16:32:21;21.10;99.90
1594;DHT22;790;47.000;16.084;2022-09-09T16:42:45;21.20;99.90
1594;DHT22;790;47.000;16.084;2022-09-09T16:49:07;21.10;99.90
1594;DHT22;790;47.000;16.084;2022-09-09T16:55:29;20.90;99.90
1594;DHT22;790;47.000;16.084;2022-09-09T17:01:52;20.80;99.90
1594;DHT22;790;47.000;16.084;2022-09-09T17:08:14;20.60;99.90
1594;DHT22;790;47.000;16.084;2022-09-09T17:14:35;20.50;99.90
1594;DHT22;790;47.000;16.084;2022-09-09T17:21:02;20.30;99.90
1594;DHT22;790;47.000;16.084;2022-09-09T17:27:26;20.20;99.90
1594;DHT22;790;47.000;16.084;2022-09-09T17:33:51;20.10;99.90
1594;DHT22;790;47.000;16.084;2022-09-09T17:44:41;20.00;99.90
1594;DHT22;790;47.000;16.084;2022-09-09T17:50:57;19.90;99.90
1594;DHT22;790;47.000;16.084;2022-09-09T17:57:05;19.90;99.90
1594;DHT22;790;47.000;16.084;2022-09-09T18:03:15;19.90;99.90
1594;DHT22;790;47.000;16.084;2022-09-09T18:09:24;19.80;99.90
1594;DHT22;790;47.000;16.084;2022-09-09T18:15:36;19.90;99.90
1594;DHT22;790;47.000;16.084;2022-09-09T18:21:46;20.00;99.90
1594;DHT22;790;47.000;16.084;2022-09-09T18:27:54;20.00;99.90
1594;DHT22;790;47.000;16.084;2022-09-09T18:34:05;19.80;99.90
1594;DHT22;790;47.000;16.084;2022-09-09T18:44:39;19.70;99.90
1594;DHT22;790;47.000;16.084;2022-09-09T18:51:02;19.50;99.90
1594;DHT22;790;47.000;16.084;2022-09-09T18:57:24;19.40;99.90
1594;DHT22;790;47.000;16.084;2022-09-09T19:03:47;19.50;99.90
1594;DHT22;790;47.000;16.084;2022-09-09T19:10:08;19.50;99.90
1594;DHT22;790;47.000;16.084;2022-09-09T19:16:32;19.60;99.90
1594;DHT22;790;47.000;16.084;2022-09-09T19:22:55;19.80;99.90
1594;DHT22;790;47.000;16.084;2022-09-09T19:29:18;19.80;99.90
1594;DHT22;790;47.000;16.084;2022-09-09T19:35:40;19.90;99.90
1594;DHT22;790;47.000;16.084;2022-09-09T19:46:27;19.90;99.90
1594;DHT22;790;47.000;16.084;2022-09-09T19:52:35;19.70;99.90
1594;DHT22;790;47.000;16.084;2022-09-09T19:58:45;19.70;99.90
1594;DHT22;790;47.000;16.084;2022-09-09T20:04:55;19.90;99.90
1594;DHT22;790;47.000;16.084;2022-09-09T20:11:05;19.80;99.90
1594;DHT22;790;47.000;16.084;2022-09-09T20:17:14;19.70;99.90
1594;DHT22;790;47.000;16.084;2022-09-09T20:23:24;19.70;99.90
1594;DHT22;790;47.000;16.084;2022-09-09T20:29:31;19.70;99.90
1594;DHT22;790;47.000;16.084;2022-09-09T20:35:39;19.50;99.90
1594;DHT22;790;47.000;16.084;2022-09-09T20:46:02;19.50;99.90
1594;DHT22;790;47.000;16.084;2022-09-09T20:52:24;19.60;99.90
1594;DHT22;790;47.000;16.084;2022-09-09T20:58:45;19.60;99.90
1594;DHT22;790;47.000;16.084;2022-09-09T21:05:08;19.50;99.90
1594;DHT22;790;47.000;16.084;2022-09-09T21:11:30;19.40;99.90
1594;DHT22;790;47.000;16.084;2022-09-09T21:17:51;19.30;99.90
1594;DHT22;790;47.000;16.084;2022-09-09T21:24:15;19.00;99.90
1594;DHT22;790;47.000;16.084;2022-09-09T21:30:37;18.80;99.90
1594;DHT22;790;47.000;16.084;2022-09-09T21:36:59;18.50;99.90
1594;DHT22;790;47.000;16.084;2022-09-09T21:47:46;18.30;99.90
1594;DHT22;790;47.000;16.084;2022-09-09T21:53:55;18.20;99.90
1594;DHT22;790;47.000;16.084;2022-09-09T22:00:06;18.30;99.90
1594;DHT22;790;47.000;16.084;2022-09-09T22:06:19;18.00;99.90
1594;DHT22;790;47.000;16.084;2022-09-09T22:12:26;18.20;99.90
1594;DHT22;790;47.000;16.084;2022-09-09T22:18:34;18.20;99.90
1594;DHT22;790;47.000;16.084;2022-09-09T22:24:54;18.40;99.90
1594;DHT22;790;47.000;16.084;2022-09-09T22:31:02;18.60;99.90
1594;DHT22;790;47.000;16.084;2022-09-09T22:37:11;18.70;99.90
1594;DHT22;790;47.000;16.084;2022-09-09T22:47:45;18.50;99.90
1594;DHT22;790;47.000;16.084;2022-09-09T22:54:07;18.20;99.90
1594;DHT22;790;47.000;16.084;2022-09-09T23:00:28;18.10;99.90
1594;DHT22;790;47.000;16.084;2022-09-09T23:06:50;18.00;99.90
1594;DHT22;790;47.000;16.084;2022-09-09T23:13:11;18.00;99.90
1594;DHT22;790;47.000;16.084;2022-09-09T23:19:32;18.10;99.90
1594;DHT22;790;47.000;16.084;2022-09-09T23:25:54;18.30;99.90
1594;DHT22;790;47.000;16.084;2022-09-09T23:32:17;18.50;99.90
1594;DHT22;790;47.000;16.084;2022-09-09T23:38:39;18.60;99.90
1594;DHT22;790;47.000;16.084;2022-09-09T23:49:25;18.60;99.90
1594;DHT22;790;47.000;16.084;2022-09-09T23:55:34;18.60;99.90
